MET2568 - Amarillo to Kansas City

Bombardier Dash-8-Q200
838AH
1 hr 45 mins
414 nm
Scheduled - Daily

Bid/PiRep Status

Bid was submitted on Oct 03 2016.

PiRep # 73570: Approved by Dave Nichols on October 5th, 2016 7:40 UTC

Departure

Departing from
Amarillo (AMA)
Departure gate
A2
Scheduled Departure
GMT 0015
Local 1915
METAR KAMA 260002Z 02018G22KT 10SM CLR 22/06 A2948 RMK AO2 WSHFT 2342 T02170061
TAF KAMA 252349Z 2600/2624 01014KT P6SM SCT050 SCT100 BKN300 FM260700 01019G29KT P6SM -SHRA OVC015 FM261700 34016G26KT P6SM SCT025

Arrival

Arriving at
Kansas City (MCI)
Arrival gate
Scheduled Arrival
GMT 0200
Local 2100

Route Map

Planning Resources

PNH J26 ICT CNU.JHAWK6
PHN GAG ICT FRACA KMCI
KAMA BROKE ICT FRACA KMCI
KAMA-PNH-GAG-ICT-FOE-KMCI
KAMA UKDEW V12 EMP.JHAWK6 KMCI
Route:
OFP Layout:
Units:
Detailed Navlog:
ETOPS Planning:
Plan Stepclimbs:
Runway Analysis:
Include NOTAMS:
FIR NOTAMS:
Flight Maps:

Return Flights

MET2563
Bombardier Dash-8-Q200
1100 GMT
MET2565
Bombardier Dash-8-Q200
1710 GMT
MET2567
Bombardier Dash-8-Q200
2210 GMT

Popularity

Hub Current Bids PiReps this month Total PiReps
KMCI 0 0 8
KLAX 0 0 0
KBOS 0 0 0